Time;durP1;ratioP1;P1;durP2;ratioP2;P2;SDS_P1;SDS_P2;PMS_P1;PMS_P2;Temp;Humidity;BMP_temperature;BMP_pressure;BME280_temperature;BME280_humidity;BME280_pressure;Samples;Min_cycle;Max_cycle;Signal;HPM_P1;HPM_P2
2022/11/01 00:00:34;;;;;;;33.00;17.20;;;;;;;12.67;87.57;100467.13;99495;1289;96370;-81
2022/11/01 00:03:22;;;;;;;34.30;18.30;;;;;;;12.66;87.65;100461.94;99438;1287;138277;-81
2022/11/01 00:05:49;;;;;;;44.40;17.90;;;;;;;12.63;87.48;100462.73;99520;1274;96487;-81
2022/11/01 00:08:16;;;;;;;76.70;18.40;;;;;;;12.59;87.45;100464.11;100032;1287;138276;-83
2022/11/01 00:10:43;;;;;;;70.40;18.60;;;;;;;12.56;87.53;100468.76;101128;1294;108372;-81
2022/11/01 00:13:10;;;;;;;41.90;17.70;;;;;;;12.54;87.56;100469.00;101122;1282;94585;-81
2022/11/01 00:15:37;;;;;;;68.10;18.00;;;;;;;12.52;87.64;100467.52;101064;1289;139866;-80
2022/11/01 00:18:04;;;;;;;82.30;17.80;;;;;;;12.50;87.74;100470.54;101206;1283;96051;-80
2022/11/01 00:20:31;;;;;;;40.20;17.60;;;;;;;12.49;87.80;100469.18;101032;1295;140412;-80
2022/11/01 00:22:57;;;;;;;30.10;17.80;;;;;;;12.50;88.01;100465.33;101174;1295;107478;-81
2022/11/01 00:25:25;;;;;;;29.60;16.70;;;;;;;12.52;88.19;100457.55;101041;1297;138863;-80
2022/11/01 00:27:52;;;;;;;44.60;17.30;;;;;;;12.54;88.10;100454.86;100518;1282;108366;-82
2022/11/01 00:30:19;;;;;;;54.70;17.80;;;;;;;12.56;87.98;100450.97;99644;1290;96392;-84
2022/11/01 00:32:46;;;;;;;42.00;17.50;;;;;;;12.57;88.02;100450.42;99490;1288;140142;-83
2022/11/01 00:35:13;;;;;;;55.50;17.20;;;;;;;12.59;87.95;100443.17;99461;1289;108580;-84
2022/11/01 00:37:40;;;;;;;73.30;17.90;;;;;;;12.57;87.70;100442.37;99336;1284;138722;-83
2022/11/01 00:40:08;;;;;;;123.80;17.40;;;;;;;12.52;87.51;100444.84;99545;1284;107770;-84
2022/11/01 00:42:35;;;;;;;38.50;17.40;;;;;;;12.45;87.69;100443.02;99666;1288;96623;-84
2022/11/01 00:45:03;;;;;;;39.00;17.70;;;;;;;12.39;87.73;100443.23;99509;1284;138284;-84
2022/11/01 00:47:30;;;;;;;38.40;16.80;;;;;;;12.34;87.88;100441.50;99588;1287;107455;-85
2022/11/01 00:49:57;;;;;;;35.00;14.80;;;;;;;12.29;87.97;100438.89;99500;1287;139028;-84
2022/11/01 00:52:24;;;;;;;51.40;15.00;;;;;;;12.23;88.05;100436.15;99613;1287;107031;-84
2022/11/01 00:54:51;;;;;;;42.40;14.80;;;;;;;12.18;88.03;100436.66;99545;1290;96783;-84
2022/11/01 00:57:18;;;;;;;48.10;15.70;;;;;;;12.14;88.28;100436.45;99485;1287;138485;-84
2022/11/01 00:59:45;;;;;;;39.80;15.30;;;;;;;12.11;88.51;100435.16;99478;1289;107796;-83
2022/11/01 01:02:12;;;;;;;31.40;13.40;;;;;;;12.06;88.39;100434.11;99510;1287;138612;-84
2022/11/01 01:04:41;;;;;;;31.00;14.20;;;;;;;12.01;88.60;100432.38;99668;1287;109406;-83
2022/11/01 01:07:09;;;;;;;53.30;15.40;;;;;;;12.00;88.96;100424.20;99489;1290;96366;-83
2022/11/01 01:09:36;;;;;;;35.00;14.30;;;;;;;11.99;89.11;100424.09;99499;1287;138987;-83
2022/11/01 01:12:04;;;;;;;46.00;14.70;;;;;;;11.98;89.23;100421.51;99451;1290;107682;-83
2022/11/01 01:14:31;;;;;;;39.70;14.50;;;;;;;11.96;89.45;100421.94;99416;1283;139476;-83
2022/11/01 01:16:58;;;;;;;38.60;14.50;;;;;;;11.95;89.71;100424.59;99537;1275;108992;-83
2022/11/01 01:19:25;;;;;;;31.50;14.00;;;;;;;11.91;89.53;100421.26;99499;1282;138837;-82
2022/11/01 01:21:52;;;;;;;46.20;14.80;;;;;;;11.89;89.82;100422.35;99506;1284;109551;-83
2022/11/01 01:24:19;;;;;;;32.90;14.00;;;;;;;11.88;90.11;100419.06;99566;1289;109821;-83
2022/11/01 01:26:46;;;;;;;30.30;14.30;;;;;;;11.87;90.11;100416.85;99443;1287;138914;-82
2022/11/01 01:29:13;;;;;;;39.40;14.00;;;;;;;11.88;90.33;100412.48;99627;1275;108821;-83
2022/11/01 01:31:40;;;;;;;29.00;15.40;;;;;;;11.88;90.50;100411.06;99316;1291;138813;-83
2022/11/01 01:34:07;;;;;;;33.60;15.00;;;;;;;11.90;90.70;100414.66;99436;1284;109803;-83
2022/11/01 01:36:34;;;;;;;30.60;14.20;;;;;;;11.92;90.81;100413.35;99591;1281;107463;-82
2022/11/01 01:39:01;;;;;;;33.40;15.70;;;;;;;11.94;90.77;100410.48;99495;1282;138342;-82
2022/11/01 01:44:59;;;;;;;37.90;15.10;;;;;;;11.98;90.73;100409.64;99497;1289;139355;-83
2022/11/01 01:47:29;;;;;;;35.50;14.70;;;;;;;12.00;90.60;100406.26;99048;1288;110026;-84
2022/11/01 01:50:02;;;;;;;34.80;15.30;;;;;;;12.02;90.68;100409.51;98889;1296;140722;-83
2022/11/01 01:52:31;;;;;;;32.70;14.50;;;;;;;12.03;90.72;100403.39;99089;1293;96491;-83
2022/11/01 01:55:02;;;;;;;39.80;14.30;;;;;;;12.04;90.51;100404.58;99113;1290;107502;-82
2022/11/01 01:57:29;;;;;;;39.50;15.00;;;;;;;12.04;90.51;100404.94;99001;1290;138917;-83
2022/11/01 01:59:57;;;;;;;36.90;14.90;;;;;;;12.02;90.42;100403.23;99135;1291;109945;-83
2022/11/01 02:02:24;;;;;;;34.00;15.20;;;;;;;11.98;90.56;100399.89;98889;1287;140613;-84
2022/11/01 02:04:56;;;;;;;39.40;13.40;;;;;;;11.98;90.60;100400.06;99095;1290;96546;-83
2022/11/01 02:07:24;;;;;;;30.60;13.70;;;;;;;11.97;90.70;100400.44;98942;1288;138797;-82
2022/11/01 02:09:52;;;;;;;29.00;14.30;;;;;;;11.99;90.69;100399.50;99025;1286;96490;-82
2022/11/01 02:12:19;;;;;;;43.10;14.60;;;;;;;12.01;90.80;100401.71;99016;1290;111060;-83
2022/11/01 02:14:46;;;;;;;31.10;13.20;;;;;;;11.99;90.73;100407.35;98947;1288;138427;-82
2022/11/01 02:17:22;;;;;;;43.80;14.40;;;;;;;11.96;90.65;100402.58;98968;1290;97023;-82
2022/11/01 02:20:09;;;;;;;30.00;13.00;;;;;;;11.93;90.65;100397.64;100545;1296;141679;-83
2022/11/01 02:22:55;;;;;;;27.80;14.70;;;;;;;11.93;90.90;100390.31;100853;1291;95764;-83
2022/11/01 02:25:40;;;;;;;33.70;13.10;;;;;;;11.92;90.87;100387.21;101084;1291;138670;-83
2022/11/01 02:28:29;;;;;;;43.90;12.90;;;;;;;11.91;90.86;100384.29;101158;1283;107894;-84
2022/11/01 02:31:07;;;;;;;40.80;13.90;;;;;;;11.89;90.87;100388.56;101166;1289;95007;-83
2022/11/01 02:33:39;;;;;;;36.10;14.60;;;;;;;11.89;90.93;100385.40;100292;1281;139918;-83
2022/11/01 02:36:15;;;;;;;46.60;14.60;;;;;;;11.90;91.03;100386.63;99480;1281;98015;-83
2022/11/01 02:38:48;;;;;;;38.70;14.40;;;;;;;11.90;91.11;100375.29;100933;1291;140192;-84
2022/11/01 02:41:23;;;;;;;36.40;14.00;;;;;;;11.89;91.12;100373.74;101091;1297;109449;-83
2022/11/01 02:43:54;;;;;;;42.00;14.40;;;;;;;11.86;91.14;100363.05;101070;1284;138847;-84
2022/11/01 02:49:08;;;;;;;40.20;15.40;;;;;;;11.82;91.22;100349.59;100997;1298;96099;-83
2022/11/01 02:51:37;;;;;;;59.80;14.60;;;;;;;11.82;91.39;100351.52;99477;1281;138332;-83
2022/11/01 02:54:09;;;;;;;47.40;15.00;;;;;;;11.78;91.20;100345.70;99530;1284;107061;-83
2022/11/01 02:56:37;;;;;;;31.50;14.80;;;;;;;11.75;91.28;100340.59;101093;1291;138469;-83
2022/11/01 02:59:04;;;;;;;38.60;14.30;;;;;;;11.73;91.35;100338.56;101043;1289;107907;-84
2022/11/01 03:01:34;;;;;;;41.80;15.00;;;;;;;11.71;91.30;100333.79;101016;1295;139809;-85
2022/11/01 03:04:03;;;;;;;36.10;13.40;;;;;;;11.70;91.45;100333.81;101222;1283;109981;-84
2022/11/01 03:06:37;;;;;;;35.60;14.70;;;;;;;11.67;91.23;100336.34;99787;1282;107484;-84
2022/11/01 03:09:08;;;;;;;48.60;13.90;;;;;;;11.64;91.29;100335.20;99525;1284;138834;-84
2022/11/01 03:11:43;;;;;;;48.10;14.10;;;;;;;11.62;91.27;100332.52;99511;1284;109230;-86
2022/11/01 03:14:24;;;;;;;42.90;14.70;;;;;;;11.59;91.36;100328.09;99521;1282;138579;-86
2022/11/01 03:17:02;;;;;;;67.40;14.50;;;;;;;11.58;91.51;100326.20;99535;1289;109746;-85
2022/11/01 03:19:37;;;;;;;59.30;14.60;;;;;;;11.57;91.59;100326.78;99361;1282;138719;-84
2022/11/01 03:22:10;;;;;;;40.80;13.40;;;;;;;11.56;91.78;100325.74;99534;1283;96612;-85
2022/11/01 03:24:43;;;;;;;43.60;13.50;;;;;;;11.55;91.71;100333.98;99607;1282;107493;-86
2022/11/01 03:27:16;;;;;;;50.30;13.80;;;;;;;11.53;91.80;100338.57;99469;1281;138632;-85
2022/11/01 03:29:46;;;;;;;37.10;13.60;;;;;;;11.49;91.59;100338.19;99593;1284;112279;-84
2022/11/01 03:32:16;;;;;;;40.00;13.50;;;;;;;11.45;91.53;100337.44;99508;1275;139137;-83
2022/11/01 03:34:45;;;;;;;49.80;13.70;;;;;;;11.42;91.53;100342.23;99515;1275;97010;-84
2022/11/01 03:37:13;;;;;;;71.00;13.90;;;;;;;11.40;91.61;100343.89;99615;1284;109454;-83
2022/11/01 03:39:44;;;;;;;74.30;13.30;;;;;;;11.38;91.66;100350.41;99504;1275;138288;-84
2022/11/01 03:42:14;;;;;;;46.00;13.20;;;;;;;11.33;91.57;100348.11;99593;1289;110092;-84
2022/11/01 03:44:44;;;;;;;54.10;13.40;;;;;;;11.28;91.35;100345.33;99531;1282;139042;-84
2022/11/01 03:47:12;;;;;;;33.00;13.20;;;;;;;11.23;91.49;100344.61;100577;1294;95109;-84
2022/11/01 03:49:39;;;;;;;89.30;13.90;;;;;;;11.20;91.70;100345.95;99463;1282;139358;-84
2022/11/01 03:52:06;;;;;;;70.80;13.70;;;;;;;11.18;91.79;100343.94;99497;1281;97981;-86
2022/11/01 03:54:34;;;;;;;88.40;13.80;;;;;;;11.15;91.69;100340.73;99572;1282;110522;-86
2022/11/01 03:57:01;;;;;;;63.10;12.70;;;;;;;11.09;91.62;100344.73;99416;1283;139251;-85
2022/11/01 03:59:28;;;;;;;26.20;12.60;;;;;;;11.04;91.73;100340.73;99601;1282;96462;-85
2022/11/01 04:01:55;;;;;;;84.00;13.40;;;;;;;11.04;91.97;100340.55;99506;1287;138332;-84
2022/11/01 04:04:22;;;;;;;47.90;13.00;;;;;;;11.04;92.00;100337.59;99467;1282;96679;-85
2022/11/01 04:06:50;;;;;;;72.80;13.90;;;;;;;10.99;91.55;100337.42;99553;1282;109927;-85
2022/11/01 04:09:17;;;;;;;91.20;13.10;;;;;;;10.91;91.33;100330.55;99416;1288;138449;-85
2022/11/01 04:11:43;;;;;;;57.60;12.20;;;;;;;10.82;91.09;100322.83;99585;1285;96990;-86
2022/11/01 04:22:25;;;;;;;51.40;13.80;;;;;;;10.58;91.90;100309.14;101169;1281;107764;-86
2022/11/01 04:24:52;;;;;;;90.70;13.00;;;;;;;10.56;92.18;100306.61;101200;1281;94922;-86
2022/11/01 04:27:19;;;;;;;37.40;13.80;;;;;;;10.55;92.37;100303.85;101096;1291;138336;-86
2022/11/01 04:29:46;;;;;;;86.00;14.60;;;;;;;10.57;92.59;100304.31;100927;1290;94645;-86
2022/11/01 04:32:13;;;;;;;88.40;14.60;;;;;;;10.58;92.87;100304.79;99516;1282;138487;-85
2022/11/01 04:34:43;;;;;;;35.80;13.60;;;;;;;10.61;92.93;100305.27;99585;1287;106806;-86
2022/11/01 04:37:10;;;;;;;43.50;13.40;;;;;;;10.65;93.17;100305.48;99631;1282;96466;-85
2022/11/01 04:39:38;;;;;;;46.00;14.30;;;;;;;10.68;93.16;100298.77;99464;1284;138469;-85
2022/11/01 04:42:05;;;;;;;51.10;14.40;;;;;;;10.71;93.12;100297.95;99603;1281;96391;-85
2022/11/01 04:44:32;;;;;;;73.20;14.90;;;;;;;10.75;93.17;100295.04;99470;1289;138310;-85
2022/11/01 04:46:59;;;;;;;87.90;14.20;;;;;;;10.75;93.13;100295.55;99514;1284;107653;-85
2022/11/01 04:49:26;;;;;;;51.20;13.00;;;;;;;10.75;92.52;100297.30;99522;1284;140551;-85
2022/11/01 04:51:53;;;;;;;109.40;14.00;;;;;;;10.69;92.26;100295.07;99564;1284;107867;-84
2022/11/01 04:54:20;;;;;;;63.60;12.30;;;;;;;10.65;92.24;100298.88;99533;1281;96568;-84
2022/11/01 04:56:47;;;;;;;57.00;12.90;;;;;;;10.60;92.21;100296.39;99526;1287;139087;-84
2022/11/01 04:59:14;;;;;;;55.50;12.50;;;;;;;10.56;92.28;100294.75;99516;1282;108166;-84
2022/11/01 05:01:41;;;;;;;35.60;12.70;;;;;;;10.55;92.31;100292.03;99523;1282;139661;-83
2022/11/01 05:04:08;;;;;;;81.10;12.50;;;;;;;10.54;92.48;100287.18;99569;1282;112333;-83
2022/11/01 05:06:35;;;;;;;98.30;12.80;;;;;;;10.54;92.35;100289.80;99563;1281;96568;-84
2022/11/01 05:09:02;;;;;;;78.20;12.40;;;;;;;10.50;92.17;100289.77;99456;1275;137393;-83
2022/11/01 05:11:29;;;;;;;52.60;12.20;;;;;;;10.46;92.16;100289.39;99604;1282;107228;-83
2022/11/01 05:13:56;;;;;;;99.60;12.50;;;;;;;10.45;92.36;100291.52;99467;1289;138634;-84
2022/11/01 05:16:23;;;;;;;87.40;13.10;;;;;;;10.43;92.45;100293.66;99561;1284;107406;-84
2022/11/01 05:18:50;;;;;;;104.80;13.20;;;;;;;10.40;92.50;100288.14;99663;1298;96362;-85
2022/11/01 05:21:17;;;;;;;125.10;12.60;;;;;;;10.38;92.57;100283.55;99445;1292;139561;-84
2022/11/01 05:23:46;;;;;;;72.40;12.40;;;;;;;10.38;92.76;100284.23;99550;1292;107058;-84
2022/11/01 05:26:13;;;;;;;88.70;13.10;;;;;;;10.38;92.83;100280.41;99495;1288;140264;-84
2022/11/01 05:28:40;;;;;;;51.50;12.50;;;;;;;10.37;92.68;100280.42;99618;1284;106903;-85
2022/11/01 05:31:07;;;;;;;75.10;12.90;;;;;;;10.35;92.82;100279.95;99523;1282;96681;-84
2022/11/01 05:33:34;;;;;;;92.30;12.00;;;;;;;10.36;93.00;100277.86;99402;1282;138679;-84
2022/11/01 05:36:03;;;;;;;83.40;13.40;;;;;;;10.37;93.00;100280.96;99503;1281;107196;-84
2022/11/01 05:38:29;;;;;;;59.20;13.70;;;;;;;10.37;93.08;100282.16;99446;1277;139060;-83
2022/11/01 05:40:56;;;;;;;58.40;12.60;;;;;;;10.36;92.96;100279.06;99600;1283;108121;-85
2022/11/01 05:43:24;;;;;;;56.80;13.80;;;;;;;10.37;92.96;100279.04;99392;1290;138810;-85
2022/11/01 05:45:51;;;;;;;45.80;12.20;;;;;;;10.37;92.98;100270.89;99535;1284;112103;-84
2022/11/01 05:48:18;;;;;;;21.50;12.90;;;;;;;10.40;93.20;100273.56;99563;1282;106954;-83
2022/11/01 05:50:46;;;;;;;54.80;13.00;;;;;;;10.45;93.59;100271.84;99390;1282;139277;-84
2022/11/01 05:53:13;;;;;;;51.10;12.50;;;;;;;10.49;93.39;100276.57;99594;1284;106773;-83
2022/11/01 05:55:40;;;;;;;46.00;13.60;;;;;;;10.52;93.30;100275.27;99480;1282;139418;-85
2022/11/01 05:58:08;;;;;;;51.90;12.90;;;;;;;10.56;93.27;100276.88;99567;1282;111149;-84
2022/11/01 06:00:35;;;;;;;38.00;13.70;;;;;;;10.55;92.91;100282.98;99425;1275;107335;-84
2022/11/01 06:03:02;;;;;;;34.20;13.20;;;;;;;10.54;92.73;100278.85;99480;1284;140101;-85
2022/11/01 06:05:31;;;;;;;75.00;13.60;;;;;;;10.56;92.92;100281.39;99597;1275;108284;-85
2022/11/01 06:08:00;;;;;;;44.00;13.70;;;;;;;10.59;93.10;100280.61;99473;1284;140415;-84
2022/11/01 06:10:27;;;;;;;45.80;12.80;;;;;;;10.63;92.94;100285.55;99614;1284;111602;-85
2022/11/01 06:12:54;;;;;;;21.40;13.00;;;;;;;10.65;93.02;100282.70;99490;1284;107492;-85
2022/11/01 06:15:21;;;;;;;28.10;15.10;;;;;;;10.68;92.95;100284.66;99470;1282;140858;-85
2022/11/01 06:17:48;;;;;;;27.20;13.90;;;;;;;10.73;92.93;100284.34;99559;1282;109141;-85
2022/11/01 06:20:15;;;;;;;22.70;13.50;;;;;;;10.76;93.16;100286.67;99451;1281;140366;-87
2022/11/01 06:22:42;;;;;;;20.60;13.10;;;;;;;10.83;93.36;100288.01;99578;1289;111799;-88
2022/11/01 06:25:11;;;;;;;23.90;13.30;;;;;;;10.89;93.34;100285.88;99543;1284;107722;-80
2022/11/01 06:27:38;;;;;;;63.40;13.70;;;;;;;10.95;93.19;100280.31;99531;1291;138394;-87
2022/11/01 06:30:06;;;;;;;48.60;15.30;;;;;;;10.99;93.14;100277.74;99614;1284;106805;-86
2022/11/01 06:32:33;;;;;;;46.30;14.40;;;;;;;11.07;93.07;100279.75;101116;1291;139153;-90
2022/11/01 06:35:00;;;;;;;38.80;15.10;;;;;;;11.09;92.73;100279.83;100670;1290;111625;-83
2022/11/01 06:37:27;;;;;;;28.80;15.20;;;;;;;11.11;92.71;100285.31;99522;1275;138915;-88
2022/11/01 06:39:54;;;;;;;41.80;14.70;;;;;;;11.16;92.75;100282.05;99594;1274;97920;-86
2022/11/01 06:42:21;;;;;;;27.30;16.40;;;;;;;11.19;92.64;100282.98;99553;1284;106976;-74
2022/11/01 06:44:47;;;;;;;39.70;15.80;;;;;;;11.23;92.65;100280.08;99497;1282;139989;-72
2022/11/01 06:47:14;;;;;;;52.70;16.00;;;;;;;11.28;92.78;100275.86;99645;1282;110784;-74
2022/11/01 06:49:41;;;;;;;43.30;15.20;;;;;;;11.33;92.55;100276.94;99478;1275;138940;-74
2022/11/01 06:52:08;;;;;;;63.90;14.40;;;;;;;11.37;92.64;100275.07;99551;1287;97915;-76
2022/11/01 06:54:36;;;;;;;28.10;15.90;;;;;;;11.39;92.30;100272.19;99581;1284;107566;-70
2022/11/01 06:57:02;;;;;;;60.80;16.10;;;;;;;11.40;92.19;100271.48;99340;1290;138685;-74
2022/11/01 06:59:30;;;;;;;84.10;15.90;;;;;;;11.39;92.13;100268.00;99556;1284;111626;-74
2022/11/01 07:01:57;;;;;;;55.50;16.40;;;;;;;11.41;92.30;100270.38;99465;1284;139177;-74
2022/11/01 07:04:26;;;;;;;81.20;15.90;;;;;;;11.43;92.38;100276.58;99551;1284;99511;-74
2022/11/01 07:06:53;;;;;;;38.80;17.10;;;;;;;11.44;92.42;100278.44;99625;1284;109198;-74
2022/11/01 07:09:20;;;;;;;31.30;15.90;;;;;;;11.44;92.41;100275.83;99528;1284;140355;-74
2022/11/01 07:11:47;;;;;;;69.80;16.50;;;;;;;11.46;92.43;100277.70;99621;1275;112176;-74
2022/11/01 07:14:14;;;;;;;46.60;17.70;;;;;;;11.45;92.30;100283.11;99476;1288;138922;-73
2022/11/01 07:16:41;;;;;;;41.70;17.20;;;;;;;11.45;92.50;100285.52;99549;1288;98008;-74
2022/11/01 07:19:08;;;;;;;45.70;16.60;;;;;;;11.47;92.60;100285.48;99627;1282;107438;-74
2022/11/01 07:21:35;;;;;;;29.10;17.10;;;;;;;11.47;92.49;100285.65;99526;1290;138680;-73
2022/11/01 07:24:02;;;;;;;35.70;17.50;;;;;;;11.49;92.40;100290.11;99658;1284;113077;-73
2022/11/01 07:26:29;;;;;;;47.30;17.60;;;;;;;11.50;92.36;100287.66;99474;1275;139166;-73
2022/11/01 07:28:57;;;;;;;49.80;17.60;;;;;;;11.53;92.37;100286.02;99539;1283;98399;-73
2022/11/01 07:31:24;;;;;;;31.40;16.40;;;;;;;11.55;92.19;100286.97;99368;1284;138706;-73
2022/11/01 07:33:51;;;;;;;54.60;17.20;;;;;;;11.57;92.24;100287.24;99534;1274;97853;-74
2022/11/01 07:36:41;;;;;;;31.70;16.40;;;;;;;11.62;92.33;100290.17;99629;1282;112485;-76
2022/11/01 07:39:09;;;;;;;34.80;17.20;;;;;;;11.71;92.27;100292.50;99554;1285;141650;-73
2022/11/01 07:41:36;;;;;;;43.70;17.40;;;;;;;11.79;92.49;100288.35;99829;1282;98322;-73
2022/11/01 07:44:02;;;;;;;52.10;17.20;;;;;;;11.86;92.23;100283.79;99696;1290;139276;-73
2022/11/01 07:46:30;;;;;;;31.00;18.20;;;;;;;11.92;92.06;100286.70;99849;1287;98504;-77
2022/11/01 07:48:59;;;;;;;26.00;16.70;;;;;;;11.97;92.20;100284.94;99848;1290;111163;-71
2022/11/01 07:51:26;;;;;;;34.10;18.60;;;;;;;12.03;92.37;100281.58;99714;1282;138583;-75
2022/11/01 07:53:53;;;;;;;28.80;18.00;;;;;;;12.11;92.34;100281.79;99797;1290;97902;-69
2022/11/01 07:56:21;;;;;;;28.60;17.90;;;;;;;12.14;92.07;100283.92;99810;1289;138667;-79
2022/11/01 07:58:48;;;;;;;33.50;18.00;;;;;;;12.17;91.71;100282.42;99970;1297;97838;-72
2022/11/01 08:01:15;;;;;;;35.50;19.10;;;;;;;12.22;91.96;100279.27;99869;1289;110889;-73
2022/11/01 08:03:42;;;;;;;39.10;19.70;;;;;;;12.27;91.66;100278.20;99937;1290;107820;-75
2022/11/01 08:06:10;;;;;;;30.90;19.60;;;;;;;12.30;91.54;100279.32;99934;1284;97813;-74
2022/11/01 08:08:38;;;;;;;29.30;19.30;;;;;;;12.30;91.48;100279.98;99823;1287;137737;-75
2022/11/01 08:11:05;;;;;;;30.60;18.80;;;;;;;12.36;91.76;100286.56;99935;1288;97822;-75
2022/11/01 08:13:32;;;;;;;27.70;18.10;;;;;;;12.41;91.79;100289.20;99840;1289;140209;-76
2022/11/01 08:16:02;;;;;;;27.80;19.60;;;;;;;12.41;91.16;100288.66;99917;1284;107971;-77
2022/11/01 08:18:29;;;;;;;35.30;22.40;;;;;;;12.40;90.83;100288.52;99970;1284;99682;-77
2022/11/01 08:20:57;;;;;;;35.80;19.90;;;;;;;12.41;90.94;100292.15;99656;1297;138543;-79
2022/11/01 08:23:24;;;;;;;29.90;19.80;;;;;;;12.44;90.99;100293.07;99937;1290;97909;-77
2022/11/01 08:25:51;;;;;;;26.80;19.60;;;;;;;12.48;90.94;100295.70;99836;1284;138649;-77
2022/11/01 08:28:21;;;;;;;33.90;19.70;;;;;;;12.49;90.56;100285.91;99816;1291;108013;-78
2022/11/01 08:30:51;;;;;;;50.10;19.00;;;;;;;12.50;90.47;100280.79;99867;1289;97825;-77
2022/11/01 08:33:18;;;;;;;33.80;19.60;;;;;;;12.53;90.64;100274.55;99826;1290;139927;-79
2022/11/01 08:35:45;;;;;;;35.90;19.30;;;;;;;12.57;90.63;100275.63;99913;1284;97810;-76
2022/11/01 08:38:16;;;;;;;30.50;20.50;;;;;;;12.62;90.66;100274.73;99834;1298;138635;-77
2022/11/01 08:40:43;;;;;;;31.30;19.60;;;;;;;12.67;90.68;100276.63;99867;1291;107549;-77
2022/11/01 08:43:11;;;;;;;34.30;19.00;;;;;;;12.71;90.35;100277.49;99956;1291;97921;-74
2022/11/01 08:45:39;;;;;;;42.50;20.00;;;;;;;12.70;89.50;100276.15;99826;1292;138079;-79
2022/11/01 08:48:07;;;;;;;30.50;19.20;;;;;;;12.64;89.00;100276.40;99981;1297;97825;-77
2022/11/01 08:50:35;;;;;;;48.30;20.90;;;;;;;12.60;89.23;100276.05;99830;1295;139316;-79
2022/11/01 08:53:05;;;;;;;55.30;20.10;;;;;;;12.57;89.29;100273.37;99900;1298;107348;-79
2022/11/01 08:55:35;;;;;;;76.10;23.30;;;;;;;12.54;89.27;100266.83;99784;1290;138934;-80
2022/11/01 08:58:04;;;;;;;33.60;20.50;;;;;;;12.52;89.25;100262.77;99871;1289;108671;-79
2022/11/01 09:00:32;;;;;;;46.80;19.60;;;;;;;12.51;89.21;100260.36;99939;1289;97837;-79
2022/11/01 09:02:59;;;;;;;49.90;21.30;;;;;;;12.50;89.08;100261.79;99889;1290;139373;-79
2022/11/01 09:05:27;;;;;;;31.50;19.70;;;;;;;12.48;88.93;100259.27;99924;1291;108644;-79
2022/11/01 09:07:59;;;;;;;36.90;21.00;;;;;;;12.46;89.22;100256.38;101376;1285;139649;-79
2022/11/01 09:10:29;;;;;;;37.50;21.30;;;;;;;12.49;89.65;100253.98;101390;1296;107097;-79
2022/11/01 09:12:57;;;;;;;36.80;21.00;;;;;;;12.51;89.49;100251.09;101385;1281;95942;-79
2022/11/01 09:15:24;;;;;;;37.20;20.90;;;;;;;12.50;89.15;100254.99;100331;1298;138500;-80
2022/11/01 09:17:51;;;;;;;40.80;21.40;;;;;;;12.48;88.89;100254.37;99844;1291;106292;-80
2022/11/01 09:20:18;;;;;;;35.70;21.50;;;;;;;12.46;88.88;100252.52;99828;1292;139476;-81
2022/11/01 09:22:50;;;;;;;30.50;21.00;;;;;;;12.46;89.02;100255.69;99768;1291;107900;-81
2022/11/01 09:25:17;;;;;;;37.40;21.30;;;;;;;12.47;89.29;100251.98;99820;1290;97683;-81
2022/11/01 09:27:44;;;;;;;35.20;21.50;;;;;;;12.48;89.10;100250.17;99805;1284;111760;-79
2022/11/01 09:30:13;;;;;;;32.00;21.40;;;;;;;12.46;88.90;100248.89;99923;1289;108748;-80
2022/11/01 09:32:40;;;;;;;35.10;21.40;;;;;;;12.47;89.30;100246.20;99722;1275;139292;-75
2022/11/01 09:35:09;;;;;;;33.50;20.90;;;;;;;12.52;89.10;100241.84;99836;1281;106893;-79
2022/11/01 09:37:36;;;;;;;45.20;21.30;;;;;;;12.55;88.88;100241.54;101296;1284;139957;-74
2022/11/01 09:40:04;;;;;;;36.20;22.50;;;;;;;12.56;88.81;100233.13;101440;1289;110981;-74
2022/11/01 09:42:34;;;;;;;33.00;21.40;;;;;;;12.60;88.93;100232.98;100132;1289;107189;-75
2022/11/01 09:45:08;;;;;;;33.90;22.60;;;;;;;12.62;88.93;100229.22;101357;1298;138926;-76
2022/11/01 09:47:36;;;;;;;46.60;23.20;;;;;;;12.66;88.96;100224.17;101417;1291;108216;-75
2022/11/01 09:50:13;;;;;;;34.50;22.40;;;;;;;12.68;88.89;100223.02;101380;1291;139292;-76
2022/11/01 09:52:42;;;;;;;40.30;23.30;;;;;;;12.70;88.82;100220.14;101547;1288;111913;-76
2022/11/01 09:55:15;;;;;;;34.30;23.10;;;;;;;12.71;88.74;100222.55;100299;1290;107489;-77
2022/11/01 09:57:45;;;;;;;39.60;23.30;;;;;;;12.74;88.97;100223.14;99901;1282;99484;-77
2022/11/01 10:00:17;;;;;;;36.20;22.80;;;;;;;12.79;88.97;100231.49;101466;1288;107942;-76
2022/11/01 10:03:17;;;;;;;36.70;23.80;;;;;;;12.80;88.73;100229.19;100416;1294;138684;-76
2022/11/01 10:05:54;;;;;;;41.30;23.90;;;;;;;12.80;88.68;100229.16;99850;1290;112118;-76
2022/11/01 10:08:38;;;;;;;36.10;23.40;;;;;;;12.82;88.79;100222.98;101310;1291;138930;-76
2022/11/01 10:11:23;;;;;;;37.90;24.70;;;;;;;12.84;88.64;100223.06;100655;1290;97797;-78
2022/11/01 10:13:58;;;;;;;38.10;24.30;;;;;;;12.86;88.78;100222.64;99922;1291;138786;-87
2022/11/01 10:16:40;;;;;;;38.30;23.80;;;;;;;12.87;88.73;100223.45;99941;1290;99307;-84
2022/11/01 10:19:13;;;;;;;38.90;24.00;;;;;;;12.86;88.59;100222.63;99952;1295;111179;-78
2022/11/01 10:21:44;;;;;;;36.30;24.30;;;;;;;12.85;88.58;100221.83;99604;1288;138896;-79
2022/11/01 10:24:20;;;;;;;33.10;23.30;;;;;;;12.82;88.52;100218.27;99897;1291;98369;-80
2022/11/01 10:26:48;;;;;;;38.20;24.30;;;;;;;12.80;88.33;100218.73;99875;1297;138725;-78
2022/11/01 10:29:20;;;;;;;38.10;24.60;;;;;;;12.75;88.15;100217.69;99971;1298;97853;-81
2022/11/01 10:31:50;;;;;;;33.40;23.40;;;;;;;12.71;88.23;100213.98;99878;1282;141303;-79
2022/11/01 10:34:24;;;;;;;37.30;23.50;;;;;;;12.71;88.44;100210.84;99883;1291;107586;-81
2022/11/01 10:36:55;;;;;;;50.70;24.80;;;;;;;12.74;88.56;100211.80;99924;1289;97720;-80
2022/11/01 10:39:35;;;;;;;38.20;23.60;;;;;;;12.69;88.38;100206.05;99840;1289;138464;-78
2022/11/01 10:42:22;;;;;;;40.40;24.50;;;;;;;12.67;88.56;100203.17;99910;1298;97834;-78
2022/11/01 10:44:54;;;;;;;43.00;24.60;;;;;;;12.67;88.66;100200.37;99895;1292;138495;-78
2022/11/01 10:47:22;;;;;;;35.40;23.90;;;;;;;12.65;88.53;100199.27;99800;1290;109371;-78
2022/11/01 10:49:51;;;;;;;46.50;25.20;;;;;;;12.60;88.30;100196.34;99818;1298;141098;-78
2022/11/01 10:52:39;;;;;;;43.00;23.90;;;;;;;12.54;88.33;100195.16;100261;1284;106895;-78
2022/11/01 10:55:12;;;;;;;47.50;24.70;;;;;;;12.48;88.52;100193.33;99774;1284;97913;-82
2022/11/01 10:57:44;;;;;;;43.70;24.70;;;;;;;12.44;88.65;100184.43;100719;1291;200332;-80
2022/11/01 11:00:18;;;;;;;43.90;24.20;;;;;;;12.40;88.73;100182.16;99912;1290;108391;-80
2022/11/01 11:02:48;;;;;;;46.60;24.60;;;;;;;12.32;88.69;100176.17;99821;1289;140558;-79
2022/11/01 11:05:15;;;;;;;35.60;23.30;;;;;;;12.28;88.86;100178.80;99979;1289;106372;-80
2022/11/01 11:07:44;;;;;;;38.30;23.40;;;;;;;12.26;89.22;100175.05;99793;1299;138926;-79
2022/11/01 11:10:19;;;;;;;42.00;23.30;;;;;;;12.26;89.29;100168.06;99972;1291;111295;-83
2022/11/01 11:12:53;;;;;;;44.70;22.60;;;;;;;12.25;89.26;100163.42;101399;1284;108313;-80
2022/11/01 11:15:27;;;;;;;46.20;24.50;;;;;;;12.22;89.28;100159.89;99826;1292;139453;-79
2022/11/01 11:18:05;;;;;;;39.60;23.00;;;;;;;12.20;89.45;100157.33;99914;1287;108544;-77
2022/11/01 11:20:33;;;;;;;47.40;22.60;;;;;;;12.23;89.71;100151.31;99670;1292;138866;-77
2022/11/01 11:23:03;;;;;;;47.00;23.00;;;;;;;12.23;89.52;100155.81;99870;1282;110736;-80
2022/11/01 11:25:36;;;;;;;58.40;23.90;;;;;;;12.20;89.33;100157.31;99779;1282;138828;-80